Terminal Aerodrome Forecast
Issued by NWS Charleston, WV

Current Version | Previous Version | Text Only | Print | Product List | Glossary Off
Versions: 1 2 3 4 5 6 7 8 9 10 11 12 13 14 15 16 17 18 19 20 21

000
FTUS41 KRLX 161700
TAFHTS
TAF
KHTS 161734Z 1618/1718 01005KT P6SM SCT010 BKN015 OVC019
     FM161900 VRB03KT P6SM SCT025
     FM170400 00000KT 6SM BR FEW035
     FM170500 00000KT 2SM BR FEW001
     FM170600 00000KT 1/2SM FG VV001
     FM171300 00000KT 2SM BR SCT002
     FM171330 00000KT P6SM FEW035=

USA.gov is the U.S. government's official web portal to all federal, state and local government web resources and services.